createdAt,value
2018-12-20T00:01:21.451Z,100575.80
2018-12-20T00:03:50.392Z,100566.73
2018-12-20T00:06:19.388Z,100570.16
2018-12-20T00:08:48.289Z,100569.58
2018-12-20T00:11:17.261Z,100564.50
2018-12-20T00:13:46.074Z,100567.16
2018-12-20T00:16:14.883Z,100562.26
2018-12-20T00:18:43.837Z,100567.41
2018-12-20T00:21:12.742Z,100565.59
2018-12-20T00:23:41.795Z,100564.09
2018-12-20T00:26:10.609Z,100565.20
2018-12-20T00:28:39.413Z,100565.94
2018-12-20T00:31:13.601Z,100559.20
2018-12-20T00:33:37.325Z,100556.70
2018-12-20T00:36:06.249Z,100558.05
2018-12-20T00:38:35.134Z,100565.01
2018-12-20T00:41:04.062Z,100556.07
2018-12-20T00:43:32.980Z,100556.68
2018-12-20T00:46:01.838Z,100556.67
2018-12-20T00:48:30.926Z,100548.09
2018-12-20T00:50:59.840Z,100555.45
2018-12-20T00:53:28.576Z,100550.11
2018-12-20T00:55:57.441Z,100545.96
2018-12-20T00:58:26.356Z,100545.02
2018-12-20T01:00:55.287Z,100542.21
2018-12-20T01:03:24.218Z,100547.75
2018-12-20T01:05:53.115Z,100542.72
2018-12-20T01:08:21.997Z,100533.13
2018-12-20T01:10:50.973Z,100533.50
2018-12-20T01:13:19.866Z,100537.98
2018-12-20T01:15:48.707Z,100539.50
2018-12-20T01:18:17.609Z,100530.80
2018-12-20T01:20:46.686Z,100538.11
2018-12-20T01:23:15.447Z,100544.00
2018-12-20T01:25:44.426Z,100546.49
2018-12-20T01:28:13.438Z,100553.97
2018-12-20T01:30:42.193Z,100546.45
2018-12-20T01:33:11.320Z,100547.98
2018-12-20T01:35:39.978Z,100547.75
2018-12-20T01:38:09.167Z,100546.89
2018-12-20T01:40:37.966Z,100548.13
2018-12-20T01:43:06.988Z,100554.59
2018-12-20T01:45:35.900Z,100546.09
2018-12-20T01:48:04.684Z,100559.09
2018-12-20T01:50:33.456Z,100556.14
2018-12-20T01:53:02.399Z,100552.34
2018-12-20T01:55:31.211Z,100549.56
2018-12-20T01:58:00.129Z,100552.75
2018-12-20T02:00:28.996Z,100545.42
2018-12-20T02:02:57.855Z,100549.47
2018-12-20T02:05:26.842Z,100541.08
2018-12-20T02:07:55.655Z,100544.08
2018-12-20T02:10:24.773Z,100541.47
2018-12-20T02:12:53.540Z,100542.50
2018-12-20T02:15:22.339Z,100548.58
2018-12-20T02:17:51.220Z,100541.83
2018-12-20T02:20:20.111Z,100543.45
2018-12-20T02:22:49.012Z,100540.67
2018-12-20T02:25:18.026Z,100541.12
2018-12-20T02:27:46.937Z,100544.61
2018-12-20T02:30:15.697Z,100539.75
2018-12-20T02:32:44.830Z,100535.53
2018-12-20T02:35:13.563Z,100545.70
2018-12-20T02:37:42.357Z,100543.31
2018-12-20T02:40:11.293Z,100538.80
2018-12-20T02:42:40.220Z,100537.81
2018-12-20T02:45:11.011Z,100531.22
2018-12-20T02:47:38.173Z,100526.19
2018-12-20T02:50:06.895Z,100521.65
2018-12-20T02:52:35.850Z,100519.46
2018-12-20T02:55:04.781Z,100519.41
2018-12-20T02:57:33.643Z,100521.84
2018-12-20T03:00:02.580Z,100525.23
2018-12-20T03:02:31.538Z,100517.83
2018-12-20T03:05:00.428Z,100515.36
2018-12-20T03:07:29.238Z,100523.54
2018-12-20T03:09:58.151Z,100531.89
2018-12-20T03:12:27.162Z,100524.86
2018-12-20T03:14:56.142Z,100523.80
2018-12-20T03:17:24.857Z,100518.80
2018-12-20T03:19:53.742Z,100522.95
2018-12-20T03:22:22.664Z,100514.45
2018-12-20T03:24:51.551Z,100523.32
2018-12-20T03:27:20.451Z,100519.17
2018-12-20T03:29:49.490Z,100521.22
2018-12-20T03:32:18.248Z,100518.64
2018-12-20T03:34:47.185Z,100525.95
2018-12-20T03:37:16.132Z,100514.13
2018-12-20T03:39:45.136Z,100523.31
2018-12-20T03:42:13.950Z,100525.03
2018-12-20T03:44:42.975Z,100524.73
2018-12-20T03:47:11.824Z,100522.46
2018-12-20T03:49:40.802Z,100517.55
2018-12-20T03:52:09.648Z,100518.05
2018-12-20T03:54:38.541Z,100519.70
2018-12-20T03:57:07.529Z,100512.14
2018-12-20T03:59:36.425Z,100514.59
2018-12-20T04:02:05.284Z,100519.46
2018-12-20T04:04:34.158Z,100510.00
2018-12-20T04:07:03.172Z,100518.73
2018-12-20T04:09:32.023Z,100516.45
2018-12-20T04:12:01.180Z,100515.00
2018-12-20T04:14:30.049Z,100511.55
2018-12-20T04:16:58.734Z,100515.13
2018-12-20T04:19:27.660Z,100515.55
2018-12-20T04:21:56.654Z,100519.35
2018-12-20T04:24:25.668Z,100513.59
2018-12-20T04:26:54.692Z,100508.44
2018-12-20T04:29:23.517Z,100512.27
2018-12-20T04:31:52.429Z,100504.57
2018-12-20T04:34:21.185Z,100511.17
2018-12-20T04:36:50.120Z,100501.87
2018-12-20T04:39:18.953Z,100505.98
2018-12-20T04:41:48.023Z,100507.63
2018-12-20T04:44:16.914Z,100511.30
2018-12-20T04:46:45.771Z,100511.55
2018-12-20T04:49:14.674Z,100508.35
2018-12-20T04:51:43.752Z,100507.98
2018-12-20T04:54:12.556Z,100507.72
2018-12-20T04:56:41.552Z,100499.47
2018-12-20T04:59:10.352Z,100510.47
2018-12-20T05:01:39.272Z,100505.36
2018-12-20T05:04:08.459Z,100499.67
2018-12-20T05:06:37.128Z,100497.95
2018-12-20T05:09:07.276Z,100495.27
2018-12-20T05:11:36.260Z,100496.48
2018-12-20T05:14:05.156Z,100502.13
2018-12-20T05:16:34.089Z,100499.54
2018-12-20T05:19:02.918Z,100508.98
2018-12-20T05:21:31.824Z,100503.29
2018-12-20T05:24:00.737Z,100501.76
2018-12-20T05:26:29.793Z,100509.62
2018-12-20T05:28:58.739Z,100502.73
2018-12-20T05:31:27.430Z,100503.46
2018-12-20T05:33:56.347Z,100514.97
2018-12-20T05:36:25.410Z,100517.45
2018-12-20T05:38:54.155Z,100509.73
2018-12-20T05:41:23.048Z,100510.83
2018-12-20T05:43:52.032Z,100517.70
2018-12-20T05:46:21.048Z,100518.05
2018-12-20T05:48:49.931Z,100523.92
2018-12-20T05:51:18.922Z,100523.33
2018-12-20T05:53:47.972Z,100524.20
2018-12-20T05:56:16.626Z,100534.22
2018-12-20T05:58:45.541Z,100534.67
2018-12-20T06:01:14.456Z,100530.61
2018-12-20T06:03:43.373Z,100534.48
2018-12-20T06:06:12.304Z,100533.73
2018-12-20T06:08:41.226Z,100537.84
2018-12-20T06:11:10.120Z,100541.97
2018-12-20T06:13:39.241Z,100549.70
2018-12-20T06:16:12.945Z,100544.34
2018-12-20T06:18:38.004Z,100549.56
2018-12-20T06:21:07.028Z,100554.73
2018-12-20T06:23:35.761Z,100548.94
2018-12-20T06:26:04.734Z,100571.47
2018-12-20T06:28:33.539Z,100556.87
2018-12-20T06:31:02.546Z,100550.84
2018-12-20T06:33:31.417Z,100551.66
2018-12-20T06:36:00.333Z,100547.61
2018-12-20T06:38:29.216Z,100554.55
2018-12-20T06:40:58.168Z,100558.79
2018-12-20T06:43:27.099Z,100561.69
2018-12-20T06:45:55.924Z,100549.01
2018-12-20T06:48:24.832Z,100565.52
2018-12-20T06:50:53.756Z,100559.88
2018-12-20T06:53:22.732Z,100562.28
2018-12-20T06:55:51.597Z,100559.56
2018-12-20T06:58:20.500Z,100556.95
2018-12-20T07:00:49.526Z,100558.53
2018-12-20T07:03:18.429Z,100562.70
2018-12-20T07:05:47.292Z,100565.33
2018-12-20T07:08:16.242Z,100557.73
2018-12-20T07:10:45.083Z,100568.65
2018-12-20T07:13:13.957Z,100571.91
2018-12-20T07:15:42.872Z,100560.13
2018-12-20T07:18:11.779Z,100561.10
2018-12-20T07:20:40.754Z,100560.02
2018-12-20T07:23:09.653Z,100564.28
2018-12-20T07:25:38.554Z,100559.97
2018-12-20T07:28:07.455Z,100561.52
2018-12-20T07:30:36.370Z,100570.66
2018-12-20T07:33:05.328Z,100558.72
2018-12-20T07:35:34.234Z,100560.08
2018-12-20T07:38:03.182Z,100552.99
2018-12-20T07:40:32.076Z,100565.33
2018-12-20T07:43:00.980Z,100557.48
2018-12-20T07:45:29.844Z,100546.20
2018-12-20T07:47:58.745Z,100550.07
2018-12-20T07:50:34.267Z,100555.75
2018-12-20T07:53:13.938Z,100553.87
2018-12-20T07:55:51.335Z,100552.47
2018-12-20T07:58:21.225Z,100555.58
2018-12-20T08:00:55.581Z,100557.06
2018-12-20T08:03:25.268Z,100563.19
2018-12-20T08:05:55.358Z,100569.09
2018-12-20T08:08:25.059Z,100564.68
2018-12-20T08:10:55.613Z,100564.78
2018-12-20T08:13:37.596Z,100576.14
2018-12-20T08:16:08.613Z,100574.23
2018-12-20T08:18:42.312Z,100581.53
2018-12-20T08:21:09.739Z,100575.64
2018-12-20T08:23:41.564Z,100578.59
2018-12-20T08:26:11.725Z,100575.97
2018-12-20T08:28:42.757Z,100575.58
2018-12-20T08:32:00.451Z,100571.25
2018-12-20T08:34:37.050Z,100569.94
2018-12-20T08:37:51.654Z,100573.38
2018-12-20T08:40:45.779Z,100570.92
2018-12-20T08:43:13.815Z,100579.45
2018-12-20T08:46:06.933Z,100577.69
2018-12-20T08:48:39.196Z,100574.67
2018-12-20T08:51:14.562Z,100580.38
2018-12-20T08:53:46.453Z,100590.55
2018-12-20T08:56:34.212Z,100588.00
2018-12-20T08:59:08.772Z,100588.05
2018-12-20T09:01:37.957Z,100578.78
2018-12-20T09:04:09.893Z,100581.80
2018-12-20T09:06:43.128Z,100583.20
2018-12-20T09:09:15.274Z,100591.72
2018-12-20T09:11:44.727Z,100583.20
2018-12-20T09:14:16.231Z,100590.81
2018-12-20T09:16:47.586Z,100587.05
2018-12-20T09:19:17.071Z,100602.11
2018-12-20T09:21:48.322Z,100593.88
2018-12-20T09:24:21.426Z,100594.42
2018-12-20T09:26:53.291Z,100600.19
2018-12-20T09:29:28.273Z,100596.44
2018-12-20T09:31:59.193Z,100597.85
2018-12-20T09:34:28.821Z,100587.91
2018-12-20T09:37:06.642Z,100593.62
2018-12-20T09:39:36.175Z,100601.17
2018-12-20T09:42:05.688Z,100591.70
2018-12-20T09:44:35.221Z,100600.06
2018-12-20T09:47:22.878Z,100603.30
2018-12-20T09:49:55.940Z,100609.56
2018-12-20T09:52:25.323Z,100608.91
2018-12-20T09:54:54.914Z,100610.20
2018-12-20T10:01:22.450Z,100610.50
2018-12-20T10:03:52.099Z,100612.21
2018-12-20T10:06:33.426Z,100608.83
2018-12-20T10:09:03.980Z,100609.82
2018-12-20T10:11:36.030Z,100604.70
2018-12-20T10:14:12.547Z,100604.93
2018-12-20T10:16:44.471Z,100607.33
2018-12-20T10:19:18.268Z,100599.17
2018-12-20T10:21:48.829Z,100595.58
2018-12-20T10:24:28.256Z,100597.23
2018-12-20T10:26:58.211Z,100600.34
2018-12-20T10:29:28.255Z,100595.47
2018-12-20T10:31:57.734Z,100599.47
2018-12-20T10:34:27.608Z,100597.42
2018-12-20T10:36:57.706Z,100601.47
2018-12-20T10:39:26.887Z,100603.81
2018-12-20T10:41:59.717Z,100603.28
2018-12-20T10:44:28.912Z,100599.70
2018-12-20T10:47:17.507Z,100594.20
2018-12-20T10:49:49.699Z,100605.62
2018-12-20T10:52:19.513Z,100597.98
2018-12-20T10:54:48.845Z,100591.45
2018-12-20T10:57:21.788Z,100592.21
2018-12-20T10:59:51.191Z,100590.88
2018-12-20T11:02:41.054Z,100588.81
2018-12-20T11:05:43.419Z,100587.17
2018-12-20T11:08:27.757Z,100583.14
2018-12-20T11:11:11.558Z,100587.09
2018-12-20T11:13:50.756Z,100575.72
2018-12-20T11:16:26.786Z,100570.89
2018-12-20T11:18:58.614Z,100576.16
2018-12-20T11:21:28.821Z,100569.67
2018-12-20T11:23:58.417Z,100574.36
2018-12-20T11:26:27.931Z,100568.94
2018-12-20T11:28:59.073Z,100568.14
2018-12-20T11:32:04.311Z,100566.23
2018-12-20T11:34:40.705Z,100565.85
2018-12-20T11:37:09.063Z,100565.30
2018-12-20T11:39:40.345Z,100561.08
2018-12-20T11:42:09.928Z,100553.61
2018-12-20T11:44:43.680Z,100554.63
2018-12-20T11:47:33.064Z,100552.91
2018-12-20T11:50:02.017Z,100552.09
2018-12-20T11:52:42.171Z,100555.67
2018-12-20T11:55:06.369Z,100561.88
2018-12-20T11:57:44.681Z,100558.22
2018-12-20T12:00:18.645Z,100559.50
2018-12-20T12:02:51.221Z,100550.94
2018-12-20T12:05:20.621Z,100551.44
2018-12-20T12:07:57.110Z,100544.25
2018-12-20T12:10:27.485Z,100549.76
2018-12-20T12:12:57.101Z,100549.06
2018-12-20T12:15:31.655Z,100545.27
2018-12-20T12:18:05.617Z,100540.76
2018-12-20T12:20:37.441Z,100548.00
2018-12-20T12:23:11.803Z,100536.70
2018-12-20T12:25:41.261Z,100543.03
2018-12-20T12:28:11.285Z,100539.11
2018-12-20T12:30:44.360Z,100530.67
2018-12-20T12:33:13.919Z,100542.96
2018-12-20T12:35:48.790Z,100547.84
2018-12-20T12:38:21.489Z,100541.70
2018-12-20T12:41:01.211Z,100534.12
2018-12-20T12:43:32.067Z,100531.53
2018-12-20T12:46:14.679Z,100538.50
2018-12-20T12:48:44.408Z,100534.00
2018-12-20T12:51:16.741Z,100545.50
2018-12-20T12:53:48.486Z,100543.62
2018-12-20T12:56:17.739Z,100542.83
2018-12-20T12:58:46.444Z,100544.18
2018-12-20T13:01:20.716Z,100543.15
2018-12-20T13:03:57.385Z,100550.40
2018-12-20T13:06:33.550Z,100541.63
2018-12-20T13:09:12.793Z,100543.23
2018-12-20T13:11:42.167Z,100543.55
2018-12-20T13:14:11.448Z,100537.66
2018-12-20T13:16:44.806Z,100531.96
2018-12-20T13:19:12.499Z,100536.14
2018-12-20T13:21:41.947Z,100531.03
2018-12-20T13:24:29.719Z,100531.78
2018-12-20T13:26:59.280Z,100526.69
2018-12-20T13:29:33.228Z,100523.86
2018-12-20T13:32:26.176Z,100519.50
2018-12-20T13:34:55.977Z,100513.50
2018-12-20T13:37:30.040Z,100518.16
2018-12-20T13:40:02.387Z,100520.91
2018-12-20T13:42:34.896Z,100513.97
2018-12-20T13:45:07.643Z,100519.73
2018-12-20T13:47:38.304Z,100517.34
2018-12-20T13:50:09.830Z,100522.67
2018-12-20T13:52:41.465Z,100516.22
2018-12-20T13:55:20.267Z,100512.70
2018-12-20T13:57:57.187Z,100522.74
2018-12-20T14:00:29.773Z,100513.17
2018-12-20T14:03:00.423Z,100519.86
2018-12-20T14:05:32.328Z,100511.27
2018-12-20T14:08:02.021Z,100528.77
2018-12-20T14:10:34.702Z,100526.13
2018-12-20T14:13:21.287Z,100527.11
2018-12-20T14:15:58.010Z,100525.22
2018-12-20T14:18:31.223Z,100521.78
2018-12-20T14:21:02.993Z,100519.43
2018-12-20T14:23:34.399Z,100517.73
2018-12-20T14:26:03.867Z,100514.00
2018-12-20T14:28:38.860Z,100520.98
2018-12-20T14:31:08.940Z,100523.50
2018-12-20T14:33:41.108Z,100531.08
2018-12-20T14:36:30.604Z,100532.71
2018-12-20T14:39:02.755Z,100541.16
2018-12-20T14:41:34.202Z,100532.44
2018-12-20T14:44:43.532Z,100525.45
2018-12-20T14:47:15.856Z,100542.39
2018-12-20T14:49:47.596Z,100547.72
2018-12-20T14:52:15.271Z,100540.98
2018-12-20T14:54:47.357Z,100546.27
2018-12-20T14:57:19.883Z,100544.66
2018-12-20T14:59:55.070Z,100560.50
2018-12-20T15:02:41.232Z,100547.84
2018-12-20T15:08:16.586Z,100546.52
2018-12-20T15:10:43.740Z,100556.52
2018-12-20T15:13:19.570Z,100548.23
2018-12-20T15:15:50.584Z,100549.69
2018-12-20T15:18:22.914Z,100553.20
2018-12-20T15:21:15.511Z,100554.23
2018-12-20T15:23:50.834Z,100551.83
2018-12-20T15:26:22.815Z,100559.81
2018-12-20T15:29:07.554Z,100569.83
2018-12-20T15:31:37.626Z,100574.23
2018-12-20T15:34:14.744Z,100570.62
2018-12-20T15:36:48.877Z,100567.80
2018-12-20T15:39:17.823Z,100575.89
2018-12-20T15:41:47.749Z,100578.29
2018-12-20T15:44:16.595Z,100573.74
2018-12-20T15:46:45.486Z,100578.77
2018-12-20T15:49:14.399Z,100584.43
2018-12-20T15:51:43.457Z,100587.93
2018-12-20T15:54:12.377Z,100582.10
2018-12-20T15:56:41.291Z,100584.78
2018-12-20T15:59:10.175Z,100593.45
2018-12-20T16:01:39.260Z,100592.20
2018-12-20T16:04:08.250Z,100594.73
2018-12-20T16:06:37.207Z,100594.53
2018-12-20T16:09:07.602Z,100598.16
2018-12-20T16:11:36.439Z,100595.09
2018-12-20T16:14:05.407Z,100601.35
2018-12-20T16:16:34.344Z,100600.62
2018-12-20T16:19:05.028Z,100599.34
2018-12-20T16:21:32.127Z,100606.58
2018-12-20T16:24:01.090Z,100609.16
2018-12-20T16:26:29.889Z,100619.75
2018-12-20T16:28:58.853Z,100626.52
2018-12-20T16:31:27.660Z,100619.54
2018-12-20T16:33:56.554Z,100618.11
2018-12-20T16:36:25.525Z,100619.33
2018-12-20T16:38:54.479Z,100616.88
2018-12-20T16:41:23.338Z,100613.94
2018-12-20T16:43:52.241Z,100612.84
2018-12-20T16:46:21.120Z,100615.41
2018-12-20T16:48:50.042Z,100614.92
2018-12-20T16:51:18.932Z,100617.19
2018-12-20T16:53:47.844Z,100616.08
2018-12-20T16:56:16.782Z,100622.95
2018-12-20T16:58:45.656Z,100620.87
2018-12-20T17:01:14.890Z,100620.61
2018-12-20T17:03:43.432Z,100615.84
2018-12-20T17:06:12.367Z,100624.08
2018-12-20T17:08:48.067Z,100614.62
2018-12-20T17:11:10.178Z,100610.52
2018-12-20T17:13:39.080Z,100605.41
2018-12-20T17:16:08.119Z,100603.75
2018-12-20T17:18:37.103Z,100608.55
2018-12-20T17:21:06.043Z,100603.70
2018-12-20T17:23:35.771Z,100598.48
2018-12-20T17:26:03.820Z,100611.31
2018-12-20T17:28:32.727Z,100594.86
2018-12-20T17:31:01.641Z,100607.50
2018-12-20T17:33:30.613Z,100607.08
2018-12-20T17:35:59.492Z,100605.05
2018-12-20T17:38:28.417Z,100607.17
2018-12-20T17:40:57.329Z,100607.56
2018-12-20T17:43:26.227Z,100603.70
2018-12-20T17:45:55.108Z,100602.39
2018-12-20T17:48:29.041Z,100609.59
2018-12-20T17:50:52.939Z,100612.89
2018-12-20T17:53:21.831Z,100604.34
2018-12-20T17:55:50.720Z,100585.20
2018-12-20T17:58:19.622Z,100590.06
2018-12-20T18:00:48.533Z,100596.83
2018-12-20T18:03:17.469Z,100603.81
2018-12-20T18:05:46.388Z,100595.02
2018-12-20T18:08:15.305Z,100588.91
2018-12-20T18:10:44.237Z,100585.55
2018-12-20T18:13:13.167Z,100586.81
2018-12-20T18:15:41.989Z,100583.36
2018-12-20T18:18:10.922Z,100583.67
2018-12-20T18:20:39.798Z,100588.89
2018-12-20T18:23:08.725Z,100581.20
2018-12-20T18:25:37.635Z,100584.53
2018-12-20T18:28:06.614Z,100579.52
2018-12-20T18:30:35.484Z,100584.60
2018-12-20T18:33:04.430Z,100584.80
2018-12-20T18:35:33.315Z,100585.17
2018-12-20T18:38:02.238Z,100585.92
2018-12-20T18:40:34.015Z,100593.38
2018-12-20T18:43:01.717Z,100593.52
2018-12-20T18:45:28.932Z,100585.20
2018-12-20T18:47:57.801Z,100590.53
2018-12-20T18:50:26.710Z,100584.66
2018-12-20T18:52:55.575Z,100587.85
2018-12-20T18:55:24.455Z,100594.16
2018-12-20T18:57:53.327Z,100597.91
2018-12-20T19:00:22.240Z,100602.09
2018-12-20T19:02:51.127Z,100611.05
2018-12-20T19:05:20.031Z,100615.36
2018-12-20T19:07:48.935Z,100604.11
2018-12-20T19:10:17.914Z,100601.53
2018-12-20T19:12:46.771Z,100597.23
2018-12-20T19:15:15.667Z,100607.73
2018-12-20T19:17:44.546Z,100605.02
2018-12-20T19:20:16.309Z,100597.30
2018-12-20T19:22:42.353Z,100606.16
2018-12-20T19:25:11.348Z,100611.91
2018-12-20T19:27:40.133Z,100615.09
2018-12-20T19:30:10.634Z,100620.14
2018-12-20T19:32:39.551Z,100609.02
2018-12-20T19:35:08.434Z,100607.56
2018-12-20T19:37:37.337Z,100594.03
2018-12-20T19:40:08.719Z,100592.55
2018-12-20T19:42:37.611Z,100597.59
2018-12-20T19:45:06.709Z,100596.72
2018-12-20T19:47:35.735Z,100594.57
2018-12-20T19:50:05.287Z,100589.06
2018-12-20T19:52:33.702Z,100594.57
2018-12-20T19:55:02.643Z,100596.66
2018-12-20T19:57:31.526Z,100599.87
2018-12-20T20:00:00.424Z,100600.88
2018-12-20T20:02:29.330Z,100597.09
2018-12-20T20:04:58.275Z,100603.32
2018-12-20T20:07:27.200Z,100613.04
2018-12-20T20:09:56.187Z,100612.42
2018-12-20T20:12:25.033Z,100611.69
2018-12-20T20:14:53.899Z,100602.48
2018-12-20T20:17:22.818Z,100614.53
2018-12-20T20:19:59.565Z,100616.36
2018-12-20T20:22:20.720Z,100614.05
2018-12-20T20:24:49.630Z,100629.11
2018-12-20T20:27:18.540Z,100615.72
2018-12-20T20:29:47.463Z,100612.12
2018-12-20T20:32:16.381Z,100614.50
2018-12-20T20:34:45.348Z,100605.05
2018-12-20T20:37:14.226Z,100604.31
2018-12-20T20:39:43.112Z,100602.38
2018-12-20T20:42:12.004Z,100618.56
2018-12-20T20:44:40.945Z,100604.34
2018-12-20T20:47:09.828Z,100615.56
2018-12-20T20:49:38.736Z,100607.77
2018-12-20T20:52:07.706Z,100591.32
2018-12-20T20:54:36.604Z,100599.77
2018-12-20T20:57:05.570Z,100594.23
2018-12-20T20:59:34.474Z,100601.41
2018-12-20T21:02:03.377Z,100596.77
2018-12-20T21:04:32.289Z,100591.13
2018-12-20T21:07:01.201Z,100580.61
2018-12-20T21:09:30.693Z,100578.57
2018-12-20T21:11:58.980Z,100575.79
2018-12-20T21:14:27.955Z,100583.08
2018-12-20T21:16:56.881Z,100579.75
2018-12-20T21:19:25.768Z,100570.52
2018-12-20T21:21:54.724Z,100581.96
2018-12-20T21:24:23.605Z,100576.81
2018-12-20T21:26:55.275Z,100582.02
2018-12-20T21:29:24.161Z,100591.08
2018-12-20T21:31:53.072Z,100579.56
2018-12-20T21:34:21.951Z,100596.77
2018-12-20T21:36:50.834Z,100595.00
2018-12-20T21:39:19.779Z,100577.25
2018-12-20T21:41:48.666Z,100587.53
2018-12-20T21:44:17.559Z,100576.05
2018-12-20T21:46:46.434Z,100593.07
2018-12-20T21:49:15.354Z,100577.84
2018-12-20T21:51:44.307Z,100583.74
2018-12-20T21:54:13.222Z,100588.12
2018-12-20T21:56:42.211Z,100582.95
2018-12-20T21:59:11.122Z,100585.48
2018-12-20T22:01:40.056Z,100591.72
2018-12-20T22:04:08.953Z,100617.82
2018-12-20T22:06:37.858Z,100579.80
2018-12-20T22:09:07.335Z,100584.71
2018-12-20T22:11:36.220Z,100578.47
2018-12-20T22:14:05.191Z,100575.45
2018-12-20T22:16:34.062Z,100590.69
2018-12-20T22:19:02.958Z,100584.29
2018-12-20T22:21:31.917Z,100587.80
2018-12-20T22:24:00.765Z,100578.09
2018-12-20T22:26:29.668Z,100575.05
2018-12-20T22:28:58.636Z,100564.41
2018-12-20T22:31:27.525Z,100576.49
2018-12-20T22:33:56.480Z,100572.03
2018-12-20T22:36:25.384Z,100581.03
2018-12-20T22:38:54.288Z,100562.28
2018-12-20T22:41:23.165Z,100569.51
2018-12-20T22:43:52.111Z,100557.79
2018-12-20T22:46:21.027Z,100569.88
2018-12-20T22:48:49.940Z,100572.95
2018-12-20T22:51:18.896Z,100557.73
2018-12-20T22:53:47.809Z,100559.56
2018-12-20T22:56:16.727Z,100554.03
2018-12-20T22:58:45.623Z,100556.58
2018-12-20T23:01:14.501Z,100549.55
2018-12-20T23:03:43.400Z,100553.36
2018-12-20T23:06:12.288Z,100548.48
2018-12-20T23:08:41.191Z,100539.75
2018-12-20T23:11:10.119Z,100538.77
2018-12-20T23:13:39.007Z,100538.64
2018-12-20T23:16:07.898Z,100537.19
2018-12-20T23:18:36.839Z,100534.09
2018-12-20T23:21:05.732Z,100542.50
2018-12-20T23:23:34.667Z,100533.23
2018-12-20T23:26:03.543Z,100545.31
2018-12-20T23:28:32.429Z,100532.52
2018-12-20T23:31:01.361Z,100534.27
2018-12-20T23:33:30.286Z,100539.91
2018-12-20T23:35:59.222Z,100523.42
2018-12-20T23:38:28.114Z,100529.24
2018-12-20T23:40:57.030Z,100510.55
2018-12-20T23:43:25.953Z,100517.97
2018-12-20T23:45:54.849Z,100519.94
2018-12-20T23:48:23.730Z,100520.05
2018-12-20T23:50:52.656Z,100515.94
2018-12-20T23:53:21.517Z,100524.90
2018-12-20T23:55:50.413Z,100516.12
2018-12-20T23:58:19.300Z,100505.30
